createdAt,value
2023-04-17T00:00:03.570Z,91.02
2023-04-17T00:01:03.723Z,91.11
2023-04-17T00:02:03.896Z,90.92
2023-04-17T00:03:04.354Z,90.91
2023-04-17T00:04:04.290Z,90.40
2023-04-17T00:05:04.264Z,90.55
2023-04-17T00:06:04.400Z,90.70
2023-04-17T00:07:04.575Z,90.88
2023-04-17T00:08:04.667Z,91.02
2023-04-17T00:09:04.713Z,90.91
2023-04-17T00:10:04.839Z,91.09
2023-04-17T00:11:08.636Z,91.03
2023-04-17T00:12:05.221Z,91.17
2023-04-17T00:13:05.298Z,91.11
2023-04-17T00:14:05.441Z,91.21
2023-04-17T00:15:05.593Z,91.16
2023-04-17T00:16:05.756Z,91.12
2023-04-17T00:17:05.900Z,91.09
2023-04-17T00:18:05.965Z,91.17
2023-04-17T00:19:06.084Z,91.31
2023-04-17T00:20:06.213Z,91.07
2023-04-17T00:21:06.324Z,91.01
2023-04-17T00:22:06.474Z,91.04
2023-04-17T00:23:06.625Z,91.02
2023-04-17T00:24:06.707Z,91.09
2023-04-17T00:25:06.850Z,90.99
2023-04-17T00:26:06.955Z,90.96
2023-04-17T00:27:07.172Z,90.86
2023-04-17T00:28:07.353Z,90.92
2023-04-17T00:29:07.408Z,91.00
2023-04-17T00:30:07.515Z,90.88
2023-04-17T00:31:07.619Z,90.91
2023-04-17T00:32:07.894Z,90.95
2023-04-17T00:33:07.888Z,90.67
2023-04-17T00:34:07.970Z,90.65
2023-04-17T00:35:08.145Z,90.67
2023-04-17T00:36:08.349Z,90.81
2023-04-17T00:37:08.406Z,90.72
2023-04-17T00:38:08.536Z,90.84
2023-04-17T00:39:08.704Z,90.88
2023-04-17T00:40:08.921Z,90.80
2023-04-17T00:41:08.961Z,90.72
2023-04-17T00:42:09.092Z,90.61
2023-04-17T00:43:09.201Z,90.66
2023-04-17T00:44:09.601Z,90.67
2023-04-17T00:45:09.482Z,90.60
2023-04-17T00:46:09.679Z,90.55
2023-04-17T00:47:09.828Z,90.52
2023-04-17T00:48:09.916Z,90.46
2023-04-17T00:49:10.279Z,90.59
2023-04-17T00:50:10.177Z,90.62
2023-04-17T00:51:10.357Z,90.51
2023-04-17T00:52:10.428Z,90.61
2023-04-17T00:53:10.566Z,90.71
2023-04-17T00:54:10.732Z,90.74
2023-04-17T00:55:10.850Z,90.74
2023-04-17T00:56:10.996Z,90.74
2023-04-17T00:57:11.102Z,90.75
2023-04-17T00:58:11.244Z,90.70
2023-04-17T00:59:11.553Z,90.68
2023-04-17T01:00:12.612Z,90.74
2023-04-17T01:01:11.753Z,90.79
2023-04-17T01:02:11.834Z,90.72
2023-04-17T01:03:11.950Z,90.69
2023-04-17T01:04:12.169Z,90.71
2023-04-17T01:05:12.154Z,90.65
2023-04-17T01:06:12.253Z,90.66
2023-04-17T01:07:12.426Z,90.60
2023-04-17T01:08:12.480Z,90.64
2023-04-17T01:09:12.728Z,90.70
2023-04-17T01:10:12.848Z,90.69
2023-04-17T01:11:12.876Z,90.70
2023-04-17T01:12:13.018Z,90.64
2023-04-17T01:13:13.149Z,90.70
2023-04-17T01:14:13.295Z,90.68
2023-04-17T01:15:13.365Z,90.68
2023-04-17T01:16:13.573Z,90.74
2023-04-17T01:17:13.656Z,90.66
2023-04-17T01:18:13.839Z,90.76
2023-04-17T01:19:14.055Z,90.92
2023-04-17T01:20:14.191Z,90.94
2023-04-17T01:21:14.210Z,90.94
2023-04-17T01:22:14.345Z,90.95
2023-04-17T01:23:14.481Z,90.98
2023-04-17T01:24:14.633Z,91.02
2023-04-17T01:25:14.779Z,91.12
2023-04-17T01:26:14.893Z,91.19
2023-04-17T01:27:15.129Z,91.08
2023-04-17T01:28:15.207Z,91.04
2023-04-17T01:29:15.236Z,91.06
2023-04-17T01:30:15.414Z,91.05
2023-04-17T01:31:15.540Z,91.07
2023-04-17T01:32:15.728Z,91.10
2023-04-17T01:33:15.795Z,91.13
2023-04-17T01:34:15.885Z,91.17
2023-04-17T01:35:16.058Z,91.12
2023-04-17T01:36:16.181Z,91.08
2023-04-17T01:37:16.300Z,91.12
2023-04-17T01:38:16.472Z,91.14
2023-04-17T01:39:16.529Z,91.06
2023-04-17T01:40:16.624Z,91.04
2023-04-17T01:41:16.757Z,91.01
2023-04-17T01:42:16.935Z,91.03
2023-04-17T01:43:17.028Z,91.17
2023-04-17T01:44:17.147Z,91.27
2023-04-17T01:45:17.413Z,91.21
2023-04-17T01:46:17.437Z,91.32
2023-04-17T01:47:17.602Z,91.30
2023-04-17T01:48:17.717Z,91.25
2023-04-17T01:49:17.795Z,91.27
2023-04-17T01:50:18.059Z,91.25
2023-04-17T01:51:18.082Z,91.16
2023-04-17T01:52:18.216Z,91.05
2023-04-17T01:53:18.351Z,91.03
2023-04-17T01:54:18.465Z,90.97
2023-04-17T01:55:18.623Z,91.02
2023-04-17T01:56:18.732Z,90.89
2023-04-17T01:57:18.945Z,90.80
2023-04-17T01:58:19.015Z,90.76
2023-04-17T01:59:19.138Z,90.79
2023-04-17T02:00:19.244Z,90.86
2023-04-17T02:01:19.375Z,90.78
2023-04-17T02:02:19.732Z,90.76
2023-04-17T02:03:19.834Z,90.79
2023-04-17T02:04:19.950Z,90.72
2023-04-17T02:05:19.899Z,90.79
2023-04-17T02:06:20.071Z,90.72
2023-04-17T02:07:20.210Z,90.66
2023-04-17T02:08:20.389Z,90.52
2023-04-17T02:09:20.456Z,90.62
2023-04-17T02:10:20.579Z,90.60
2023-04-17T02:11:20.792Z,90.68
2023-04-17T02:12:20.855Z,90.65
2023-04-17T02:13:20.993Z,90.68
2023-04-17T02:14:21.149Z,90.64
2023-04-17T02:15:21.231Z,90.70
2023-04-17T02:16:21.399Z,90.72
2023-04-17T02:17:21.520Z,90.71
2023-04-17T02:18:21.620Z,90.70
2023-04-17T02:19:21.757Z,90.70
2023-04-17T02:20:21.859Z,90.70
2023-04-17T02:21:21.999Z,90.69
2023-04-17T02:22:22.212Z,90.64
2023-04-17T02:23:22.416Z,90.69
2023-04-17T02:24:22.419Z,90.71
2023-04-17T02:25:22.495Z,90.71
2023-04-17T02:26:22.672Z,90.58
2023-04-17T02:27:22.799Z,90.38
2023-04-17T02:28:22.950Z,90.61
2023-04-17T02:29:23.003Z,90.69
2023-04-17T02:30:23.112Z,90.68
2023-04-17T02:31:23.281Z,90.59
2023-04-17T02:32:23.389Z,90.62
2023-04-17T02:33:23.618Z,90.68
2023-04-17T02:34:23.714Z,90.58
2023-04-17T02:35:23.836Z,90.55
2023-04-17T02:36:23.945Z,90.65
2023-04-17T02:37:24.125Z,90.70
2023-04-17T02:38:24.174Z,90.71
2023-04-17T02:39:24.361Z,90.65
2023-04-17T02:40:24.435Z,90.60
2023-04-17T02:41:24.549Z,90.58
2023-04-17T02:42:24.716Z,90.61
2023-04-17T02:43:24.790Z,90.65
2023-04-17T02:44:24.925Z,90.65
2023-04-17T02:45:25.017Z,90.74
2023-04-17T02:46:25.141Z,90.75
2023-04-17T02:47:25.427Z,90.89
2023-04-17T02:48:25.410Z,90.91
2023-04-17T02:49:25.490Z,90.87
2023-04-17T02:50:25.623Z,90.87
2023-04-17T02:51:25.754Z,90.74
2023-04-17T02:52:25.891Z,90.86
2023-04-17T02:53:25.964Z,90.93
2023-04-17T02:54:26.175Z,90.82
2023-04-17T02:55:26.239Z,90.96
2023-04-17T02:56:26.451Z,90.93
2023-04-17T02:57:26.510Z,90.94
2023-04-17T02:58:26.660Z,90.97
2023-04-17T02:59:26.736Z,90.99
2023-04-17T03:00:26.899Z,90.88
2023-04-17T03:01:27.117Z,90.88
2023-04-17T03:02:27.286Z,90.88
2023-04-17T03:03:27.480Z,90.96
2023-04-17T03:04:27.566Z,91.01
2023-04-17T03:05:27.547Z,90.99
2023-04-17T03:06:27.619Z,90.97
2023-04-17T03:07:27.873Z,90.91
2023-04-17T03:08:27.964Z,90.98
2023-04-17T03:09:28.058Z,90.97
2023-04-17T03:10:28.228Z,90.98
2023-04-17T03:11:28.272Z,91.01
2023-04-17T03:12:28.418Z,90.98
2023-04-17T03:13:28.591Z,90.92
2023-04-17T03:14:28.704Z,90.87
2023-04-17T03:15:28.785Z,90.86
2023-04-17T03:16:29.059Z,90.93
2023-04-17T03:17:29.149Z,91.01
2023-04-17T03:18:29.183Z,91.08
2023-04-17T03:19:29.376Z,91.14
2023-04-17T03:20:29.485Z,91.08
2023-04-17T03:21:29.665Z,91.08
2023-04-17T03:22:29.764Z,91.20
2023-04-17T03:23:29.889Z,91.21
2023-04-17T03:24:29.997Z,91.15
2023-04-17T03:25:30.137Z,91.19
2023-04-17T03:26:30.229Z,91.29
2023-04-17T03:27:30.515Z,91.49
2023-04-17T03:28:30.520Z,91.57
2023-04-17T03:29:30.653Z,91.74
2023-04-17T03:30:30.789Z,91.88
2023-04-17T03:31:30.978Z,91.89
2023-04-17T03:32:31.020Z,91.90
2023-04-17T03:33:31.135Z,92.00
2023-04-17T03:34:31.332Z,91.97
2023-04-17T03:35:31.405Z,92.06
2023-04-17T03:36:31.526Z,92.06
2023-04-17T03:37:31.633Z,92.12
2023-04-17T03:38:31.806Z,92.16
2023-04-17T03:39:31.924Z,92.07
2023-04-17T03:40:33.665Z,92.13
2023-04-17T03:41:32.152Z,92.12
2023-04-17T03:42:32.311Z,92.17
2023-04-17T03:43:32.368Z,92.18
2023-04-17T03:44:32.537Z,92.38
2023-04-17T03:45:32.614Z,92.49
2023-04-17T03:46:32.881Z,92.59
2023-04-17T03:47:33.002Z,92.66
2023-04-17T03:48:32.988Z,92.69
2023-04-17T03:49:33.139Z,92.77
2023-04-17T03:50:33.243Z,92.74
2023-04-17T03:51:33.441Z,92.80
2023-04-17T03:52:33.532Z,92.89
2023-04-17T03:53:33.735Z,92.91
2023-04-17T03:54:33.778Z,92.87
2023-04-17T03:55:33.840Z,92.91
2023-04-17T03:56:34.011Z,92.85
2023-04-17T03:57:34.158Z,92.86
2023-04-17T03:58:34.288Z,92.82
2023-04-17T03:59:34.499Z,92.79
2023-04-17T04:00:34.545Z,92.87
2023-04-17T04:01:34.752Z,92.90
2023-04-17T04:02:34.882Z,92.84
2023-04-17T04:03:35.136Z,92.85
2023-04-17T04:04:35.329Z,92.70
2023-04-17T04:05:35.185Z,92.72
2023-04-17T04:06:35.402Z,92.83
2023-04-17T04:07:35.474Z,92.92
2023-04-17T04:08:35.668Z,92.86
2023-04-17T04:09:35.727Z,92.79
2023-04-17T04:10:35.850Z,92.85
2023-04-17T04:11:36.065Z,92.84
2023-04-17T04:12:36.173Z,92.91
2023-04-17T04:13:36.384Z,92.87
2023-04-17T04:14:36.439Z,92.86
2023-04-17T04:15:36.529Z,92.84
2023-04-17T04:16:36.699Z,92.90
2023-04-17T04:17:36.786Z,92.84
2023-04-17T04:18:36.899Z,92.89
2023-04-17T04:19:36.997Z,92.86
2023-04-17T04:20:37.177Z,92.81
2023-04-17T04:21:37.549Z,92.89
2023-04-17T04:22:37.418Z,92.94
2023-04-17T04:23:37.554Z,92.99
2023-04-17T04:24:37.665Z,93.00
2023-04-17T04:25:37.783Z,93.18
2023-04-17T04:26:38.049Z,93.28
2023-04-17T04:27:38.671Z,93.63
2023-04-17T04:28:38.279Z,93.82
2023-04-17T04:29:38.300Z,94.00
2023-04-17T04:30:38.466Z,94.18
2023-04-17T04:31:38.602Z,94.22
2023-04-17T04:32:38.769Z,94.28
2023-04-17T04:33:38.826Z,94.39
2023-04-17T04:34:39.033Z,94.47
2023-04-17T04:35:39.199Z,94.51
2023-04-17T04:36:39.201Z,94.48
2023-04-17T04:37:39.404Z,94.49
2023-04-17T04:38:39.736Z,94.63
2023-04-17T04:39:39.635Z,94.68
2023-04-17T04:40:39.777Z,94.78
2023-04-17T04:41:39.984Z,94.70
2023-04-17T04:42:40.026Z,94.61
2023-04-17T04:43:40.163Z,94.64
2023-04-17T04:44:40.343Z,94.75
2023-04-17T04:45:40.394Z,94.80
2023-04-17T04:46:40.534Z,94.87
2023-04-17T04:47:40.821Z,94.91
2023-04-17T04:48:42.828Z,94.91
2023-04-17T04:49:41.002Z,94.94
2023-04-17T04:50:41.010Z,94.90
2023-04-17T04:51:41.159Z,94.94
2023-04-17T04:52:41.246Z,94.92
2023-04-17T04:53:41.386Z,94.77
2023-04-17T04:54:41.563Z,94.68
2023-04-17T04:55:41.701Z,94.84
2023-04-17T04:56:41.768Z,94.93
2023-04-17T04:57:41.976Z,94.97
2023-04-17T04:58:41.971Z,95.03
2023-04-17T04:59:42.098Z,94.98
2023-04-17T05:00:42.309Z,95.04
2023-04-17T05:01:42.475Z,95.08
2023-04-17T05:02:42.666Z,95.14
2023-04-17T05:03:42.726Z,95.09
2023-04-17T05:04:42.795Z,95.12
2023-04-17T05:05:42.930Z,95.15
2023-04-17T05:06:43.030Z,95.17
2023-04-17T05:07:43.215Z,95.16
2023-04-17T05:08:43.256Z,95.13
2023-04-17T05:09:43.409Z,95.16
2023-04-17T05:10:43.614Z,95.17
2023-04-17T05:11:43.774Z,95.17
2023-04-17T05:12:43.781Z,95.15
2023-04-17T05:13:43.923Z,95.12
2023-04-17T05:14:44.074Z,95.09
2023-04-17T05:15:44.165Z,95.12
2023-04-17T05:16:44.442Z,95.11
2023-04-17T05:17:44.497Z,95.06
2023-04-17T05:18:44.669Z,95.09
2023-04-17T05:19:44.699Z,95.10
2023-04-17T05:20:44.835Z,95.08
2023-04-17T05:21:44.992Z,95.08
2023-04-17T05:22:45.125Z,95.12
2023-04-17T05:23:45.296Z,95.14
2023-04-17T05:24:45.459Z,95.11
2023-04-17T05:25:45.535Z,95.07
2023-04-17T05:26:45.712Z,95.01
2023-04-17T05:27:45.997Z,94.97
2023-04-17T05:28:45.962Z,95.02
2023-04-17T05:29:46.070Z,95.08
2023-04-17T05:30:46.215Z,95.06
2023-04-17T05:31:46.386Z,95.05
2023-04-17T05:32:46.509Z,95.10
2023-04-17T05:33:46.643Z,95.11
2023-04-17T05:34:46.713Z,95.10
2023-04-17T05:35:46.832Z,95.04
2023-04-17T05:36:46.973Z,95.01
2023-04-17T05:37:47.194Z,95.00
2023-04-17T05:38:47.310Z,95.01
2023-04-17T05:39:47.420Z,95.06
2023-04-17T05:40:47.526Z,95.04
2023-04-17T05:41:47.624Z,95.08
2023-04-17T05:42:47.744Z,95.14
2023-04-17T05:43:47.931Z,95.15
2023-04-17T05:44:48.037Z,95.16
2023-04-17T05:45:48.181Z,95.16
2023-04-17T05:46:48.299Z,95.17
2023-04-17T05:47:48.422Z,95.14
2023-04-17T05:48:48.561Z,95.06
2023-04-17T05:49:48.700Z,95.07
2023-04-17T05:50:48.751Z,95.08
2023-04-17T05:51:48.879Z,95.11
2023-04-17T05:52:48.991Z,95.16
2023-04-17T05:53:49.189Z,95.19
2023-04-17T05:54:49.221Z,95.20
2023-04-17T05:55:49.337Z,95.20
2023-04-17T05:56:49.513Z,95.24
2023-04-17T05:57:49.577Z,95.25
2023-04-17T05:58:49.776Z,95.22
2023-04-17T05:59:49.882Z,95.17
2023-04-17T06:00:50.014Z,95.15
2023-04-17T06:01:50.157Z,95.16
2023-04-17T06:02:50.352Z,95.22
2023-04-17T06:03:50.687Z,95.27
2023-04-17T06:04:50.686Z,95.25
2023-04-17T06:05:50.707Z,95.26
2023-04-17T06:06:50.831Z,95.25
2023-04-17T06:07:50.996Z,95.26
2023-04-17T06:08:51.036Z,95.26
2023-04-17T06:09:51.218Z,95.25
2023-04-17T06:10:51.412Z,95.12
2023-04-17T06:11:51.497Z,95.11
2023-04-17T06:12:51.619Z,95.16
2023-04-17T06:13:51.784Z,95.09
2023-04-17T06:14:51.830Z,95.11
2023-04-17T06:15:51.944Z,95.16
2023-04-17T06:16:52.071Z,95.19
2023-04-17T06:17:52.280Z,95.13
2023-04-17T06:18:52.384Z,95.07
2023-04-17T06:19:52.479Z,95.13
2023-04-17T06:20:52.586Z,95.17
2023-04-17T06:21:52.772Z,95.18
2023-04-17T06:22:53.116Z,95.17
2023-04-17T06:23:53.029Z,95.24
2023-04-17T06:24:53.120Z,95.35
2023-04-17T06:25:53.432Z,95.37
2023-04-17T06:26:53.332Z,95.42
2023-04-17T06:27:53.549Z,95.43
2023-04-17T06:28:53.641Z,95.47
2023-04-17T06:29:53.739Z,95.47
2023-04-17T06:30:53.905Z,95.46
2023-04-17T06:31:53.980Z,95.40
2023-04-17T06:32:54.144Z,95.43
2023-04-17T06:33:54.299Z,95.46
2023-04-17T06:34:59.480Z,95.47
2023-04-17T06:35:55.461Z,95.49
2023-04-17T06:36:54.640Z,95.51
2023-04-17T06:37:54.738Z,95.50
2023-04-17T06:38:54.856Z,95.54
2023-04-17T06:39:55.019Z,95.54
2023-04-17T06:40:55.148Z,95.51
2023-04-17T06:41:55.375Z,95.52
2023-04-17T06:42:55.346Z,95.51
2023-04-17T06:43:55.500Z,95.50
2023-04-17T06:44:55.656Z,95.55
2023-04-17T06:45:55.809Z,95.60
2023-04-17T06:46:55.894Z,95.47
2023-04-17T06:47:56.137Z,95.37
2023-04-17T06:48:56.188Z,95.44
2023-04-17T06:49:56.361Z,95.40
2023-04-17T06:50:56.425Z,95.37
2023-04-17T06:51:56.516Z,95.42
2023-04-17T06:52:56.665Z,95.50
2023-04-17T06:53:56.945Z,95.48
2023-04-17T06:54:57.003Z,95.49
2023-04-17T06:55:57.033Z,95.47
2023-04-17T06:56:57.234Z,95.50
2023-04-17T06:57:57.311Z,95.54
2023-04-17T06:58:57.442Z,95.46
2023-04-17T06:59:57.710Z,95.48
2023-04-17T07:00:57.717Z,95.47
2023-04-17T07:01:57.897Z,95.48
2023-04-17T07:02:58.105Z,95.52
2023-04-17T07:03:58.189Z,95.57
2023-04-17T07:04:58.305Z,95.59
2023-04-17T07:05:58.503Z,95.54
2023-04-17T07:06:58.540Z,95.50
2023-04-17T07:07:58.700Z,95.45
2023-04-17T07:08:58.785Z,95.44
2023-04-17T07:09:58.905Z,95.46
2023-04-17T07:10:59.016Z,95.45
2023-04-17T07:11:59.241Z,95.36
2023-04-17T07:12:59.238Z,95.43
2023-04-17T07:13:59.366Z,95.43
2023-04-17T07:14:59.458Z,95.44
2023-04-17T07:15:59.669Z,95.45
2023-04-17T07:16:59.795Z,95.23
2023-04-17T07:17:59.979Z,95.29
2023-04-17T07:19:00.084Z,95.34
2023-04-17T07:20:00.178Z,95.35
2023-04-17T07:21:00.356Z,95.28
2023-04-17T07:22:00.480Z,95.22
2023-04-17T07:23:00.545Z,95.16
2023-04-17T07:24:00.646Z,95.08
2023-04-17T07:25:00.804Z,95.02
2023-04-17T07:26:00.952Z,95.10
2023-04-17T07:27:01.098Z,95.02
2023-04-17T07:28:02.585Z,95.07
2023-04-17T07:29:01.468Z,95.08
2023-04-17T07:30:01.426Z,95.11
2023-04-17T07:31:01.621Z,95.16
2023-04-17T07:32:01.837Z,95.17
2023-04-17T07:33:02.043Z,95.19
2023-04-17T07:34:01.993Z,95.09
2023-04-17T07:35:02.128Z,95.13
2023-04-17T07:36:02.273Z,95.11
2023-04-17T07:37:02.459Z,95.07
2023-04-17T07:38:02.543Z,95.15
2023-04-17T07:39:02.821Z,95.15
2023-04-17T07:40:02.800Z,95.02
2023-04-17T07:41:02.933Z,95.06
2023-04-17T07:42:03.017Z,95.18
2023-04-17T07:43:03.191Z,95.19
2023-04-17T07:44:03.408Z,95.21
2023-04-17T07:45:03.510Z,95.21
2023-04-17T07:46:03.597Z,95.20
2023-04-17T07:47:03.699Z,95.18
2023-04-17T07:48:04.023Z,95.16
2023-04-17T07:49:03.957Z,95.13
2023-04-17T07:50:04.070Z,95.04
2023-04-17T07:51:04.372Z,94.90
2023-04-17T07:52:04.418Z,94.85
2023-04-17T07:53:04.603Z,94.74
2023-04-17T07:54:04.664Z,94.73
2023-04-17T07:55:04.721Z,94.70
2023-04-17T07:56:04.860Z,94.64
2023-04-17T07:57:05.069Z,94.60
2023-04-17T07:58:05.181Z,94.59
2023-04-17T07:59:05.348Z,94.67
2023-04-17T08:00:05.541Z,94.58
2023-04-17T08:01:05.627Z,94.53
2023-04-17T08:02:05.828Z,94.60
2023-04-17T08:03:06.110Z,94.63
2023-04-17T08:04:06.037Z,94.53
2023-04-17T08:05:06.387Z,94.43
2023-04-17T08:06:06.210Z,94.35
2023-04-17T08:07:06.371Z,94.52
2023-04-17T08:08:06.612Z,94.59
2023-04-17T08:09:06.626Z,94.58
2023-04-17T08:10:06.735Z,94.60
2023-04-17T08:11:06.865Z,94.52
2023-04-17T08:12:06.928Z,94.39
2023-04-17T08:13:07.083Z,94.25
2023-04-17T08:14:07.295Z,94.19
2023-04-17T08:15:07.317Z,94.22
2023-04-17T08:16:07.494Z,94.29
2023-04-17T08:17:07.902Z,94.29
2023-04-17T08:18:07.977Z,94.11
2023-04-17T08:19:07.901Z,94.14
2023-04-17T08:20:08.052Z,94.14
2023-04-17T08:21:08.127Z,94.14
2023-04-17T08:22:08.343Z,94.06
2023-04-17T08:23:08.514Z,94.05
2023-04-17T08:24:08.617Z,94.05
2023-04-17T08:25:08.656Z,94.03
2023-04-17T08:26:08.800Z,94.07
2023-04-17T08:27:08.950Z,94.06
2023-04-17T08:28:09.210Z,94.02
2023-04-17T08:29:09.193Z,94.04
2023-04-17T08:30:11.169Z,93.98
2023-04-17T08:31:09.434Z,93.99
2023-04-17T08:32:14.676Z,93.80
2023-04-17T08:33:10.736Z,93.65
2023-04-17T08:34:14.989Z,93.70
2023-04-17T08:35:10.979Z,93.50
2023-04-17T08:36:10.300Z,93.51
2023-04-17T08:37:10.223Z,93.60
2023-04-17T08:38:10.355Z,93.56
2023-04-17T08:39:10.858Z,93.05
2023-04-17T08:40:10.593Z,93.04
2023-04-17T08:41:10.713Z,92.79
2023-04-17T08:42:13.297Z,92.73
2023-04-17T08:43:11.936Z,92.91
2023-04-17T08:44:11.134Z,93.04
2023-04-17T08:45:11.210Z,93.03
2023-04-17T08:46:11.461Z,92.90
2023-04-17T08:47:11.454Z,92.74
2023-04-17T08:48:11.707Z,92.75
2023-04-17T08:49:12.066Z,92.85
2023-04-17T08:50:11.866Z,92.70
2023-04-17T08:51:12.014Z,92.32
2023-04-17T08:52:12.189Z,92.54
2023-04-17T08:53:12.330Z,92.53
2023-04-17T08:54:12.584Z,92.17
2023-04-17T08:55:12.501Z,92.25
2023-04-17T08:56:12.753Z,91.93
2023-04-17T08:57:12.781Z,91.85
2023-04-17T08:58:12.889Z,91.54
2023-04-17T08:59:13.222Z,91.37
2023-04-17T09:00:13.213Z,91.50
2023-04-17T09:01:13.331Z,91.58
2023-04-17T09:02:13.657Z,90.97
2023-04-17T09:03:13.923Z,91.20
2023-04-17T09:04:13.847Z,91.27
2023-04-17T09:05:13.880Z,91.38
2023-04-17T09:06:13.934Z,91.36
2023-04-17T09:07:14.098Z,91.07
2023-04-17T09:08:14.291Z,91.14
2023-04-17T09:09:14.317Z,91.03
2023-04-17T09:10:14.433Z,91.08
2023-04-17T09:11:14.530Z,91.10
2023-04-17T09:12:14.653Z,91.00
2023-04-17T09:13:14.901Z,91.19
2023-04-17T09:14:14.964Z,91.21
2023-04-17T09:15:15.086Z,91.06
2023-04-17T09:16:15.266Z,91.05
2023-04-17T09:17:15.319Z,91.01
2023-04-17T09:18:15.473Z,90.79
2023-04-17T09:19:15.584Z,90.53
2023-04-17T09:20:15.676Z,90.60
2023-04-17T09:21:15.765Z,90.14
2023-04-17T09:22:15.921Z,90.19
2023-04-17T09:23:16.045Z,90.13
2023-04-17T09:24:16.212Z,90.04
2023-04-17T09:25:16.275Z,89.96
2023-04-17T09:26:16.556Z,90.04
2023-04-17T09:27:16.541Z,89.98
2023-04-17T09:28:16.734Z,89.84
2023-04-17T09:29:17.135Z,89.77
2023-04-17T09:30:16.879Z,90.04
2023-04-17T09:31:17.027Z,89.82
2023-04-17T09:32:17.221Z,90.11
2023-04-17T09:33:17.342Z,90.21
2023-04-17T09:34:17.393Z,90.09
2023-04-17T09:35:17.466Z,89.90
2023-04-17T09:36:17.641Z,89.75
2023-04-17T09:37:17.806Z,89.61
2023-04-17T09:38:17.850Z,89.56
2023-04-17T09:39:18.038Z,89.57
2023-04-17T09:40:18.238Z,89.57
2023-04-17T09:41:18.248Z,89.75
2023-04-17T09:42:18.410Z,89.61
2023-04-17T09:43:18.513Z,89.75
2023-04-17T09:44:18.675Z,89.96
2023-04-17T09:45:18.824Z,90.05
2023-04-17T09:46:18.925Z,89.95
2023-04-17T09:47:19.119Z,90.04
2023-04-17T09:48:19.361Z,89.56
2023-04-17T09:49:19.339Z,89.52
2023-04-17T09:50:19.475Z,89.70
2023-04-17T09:51:19.592Z,89.45
2023-04-17T09:52:19.927Z,89.49
2023-04-17T09:53:19.853Z,89.72
2023-04-17T09:54:19.942Z,89.88
2023-04-17T09:55:20.113Z,89.76
2023-04-17T09:56:20.218Z,89.88
2023-04-17T09:57:20.373Z,89.97
2023-04-17T09:58:20.518Z,89.86
2023-04-17T09:59:20.609Z,89.83
2023-04-17T10:00:20.727Z,89.69
2023-04-17T10:01:20.948Z,89.80
2023-04-17T10:02:21.252Z,89.86
2023-04-17T10:03:21.397Z,89.66
2023-04-17T10:04:21.392Z,89.44
2023-04-17T10:05:21.403Z,89.47
2023-04-17T10:06:21.602Z,89.57
2023-04-17T10:07:21.654Z,89.57
2023-04-17T10:08:21.891Z,89.51
2023-04-17T10:09:21.897Z,89.61
2023-04-17T10:10:22.027Z,89.73
2023-04-17T10:11:22.143Z,89.37
2023-04-17T10:12:22.443Z,89.50
2023-04-17T10:13:22.439Z,89.14
2023-04-17T10:14:22.544Z,89.19
2023-04-17T10:15:22.696Z,89.10
2023-04-17T10:16:22.860Z,89.41
2023-04-17T10:17:23.070Z,89.58
2023-04-17T10:18:23.826Z,89.67
2023-04-17T10:19:23.188Z,89.01
2023-04-17T10:20:23.703Z,89.30
2023-04-17T10:21:23.424Z,88.72
2023-04-17T10:22:23.601Z,88.32
2023-04-17T10:23:23.698Z,88.18
2023-04-17T10:24:23.840Z,87.89
2023-04-17T10:25:23.996Z,88.36
2023-04-17T10:26:24.095Z,88.33
2023-04-17T10:27:24.302Z,88.52
2023-04-17T10:28:24.478Z,88.56
2023-04-17T10:29:24.483Z,88.21
2023-04-17T10:30:24.636Z,88.01
2023-04-17T10:31:24.790Z,87.41
2023-04-17T10:32:24.855Z,87.46
2023-04-17T10:33:25.071Z,87.66
2023-04-17T10:34:25.132Z,87.36
2023-04-17T10:35:25.231Z,87.76
2023-04-17T10:36:25.646Z,87.59
2023-04-17T10:37:25.528Z,87.33
2023-04-17T10:38:25.642Z,87.64
2023-04-17T10:39:25.790Z,87.56
2023-04-17T10:40:25.945Z,87.51
2023-04-17T10:41:26.040Z,87.41
2023-04-17T10:42:26.150Z,87.19
2023-04-17T10:43:26.281Z,87.22
2023-04-17T10:44:26.371Z,87.28
2023-04-17T10:45:26.491Z,87.49
2023-04-17T10:46:26.728Z,87.28
2023-04-17T10:47:26.771Z,87.12
2023-04-17T10:48:26.934Z,86.92
2023-04-17T10:49:26.971Z,87.47
2023-04-17T10:50:27.144Z,87.33
2023-04-17T10:51:27.245Z,86.10
2023-04-17T10:52:27.359Z,85.34
2023-04-17T10:53:27.528Z,86.06
2023-04-17T10:54:27.636Z,85.63
2023-04-17T10:55:27.803Z,84.52
2023-04-17T10:56:27.857Z,85.50
2023-04-17T10:57:28.038Z,85.88
2023-04-17T10:58:31.595Z,86.68
2023-04-17T10:59:28.273Z,86.04
2023-04-17T11:00:28.290Z,85.03
2023-04-17T11:01:29.030Z,84.71
2023-04-17T11:02:28.603Z,84.81
2023-04-17T11:03:28.772Z,84.10
2023-04-17T11:04:28.934Z,82.70
2023-04-17T11:05:28.979Z,83.22
2023-04-17T11:06:29.099Z,83.23
2023-04-17T11:07:29.202Z,82.76
2023-04-17T11:08:29.316Z,83.23
2023-04-17T11:09:29.590Z,83.77
2023-04-17T11:10:29.601Z,83.81
2023-04-17T11:11:43.663Z,84.11
2023-04-17T11:12:30.851Z,82.80
2023-04-17T11:13:29.930Z,82.59
2023-04-17T11:14:30.363Z,82.23
2023-04-17T11:15:30.206Z,80.36
2023-04-17T11:16:30.397Z,78.77
2023-04-17T11:17:30.471Z,81.69
2023-04-17T11:18:30.531Z,79.09
2023-04-17T11:19:31.138Z,78.27
2023-04-17T11:20:30.841Z,76.91
2023-04-17T11:21:30.935Z,79.01
2023-04-17T11:22:31.102Z,79.45
2023-04-17T11:23:31.207Z,80.55
2023-04-17T11:24:31.341Z,80.54
2023-04-17T11:25:31.702Z,79.46
2023-04-17T11:26:31.545Z,80.19
2023-04-17T11:27:31.663Z,80.52
2023-04-17T11:28:31.919Z,80.71
2023-04-17T11:29:31.912Z,79.97
2023-04-17T11:30:32.018Z,80.27
2023-04-17T11:31:32.176Z,80.90
2023-04-17T11:32:32.299Z,81.72
2023-04-17T11:33:32.456Z,82.18
2023-04-17T11:34:32.545Z,81.60
2023-04-17T11:35:32.682Z,81.33
2023-04-17T11:36:32.814Z,80.56
2023-04-17T11:37:32.958Z,78.52
2023-04-17T11:38:33.059Z,78.23
2023-04-17T11:39:33.213Z,77.81
2023-04-17T11:40:33.348Z,77.85
2023-04-17T11:41:33.450Z,77.59
2023-04-17T11:42:33.632Z,77.14
2023-04-17T11:43:33.687Z,78.78
2023-04-17T11:44:33.844Z,79.44
2023-04-17T11:45:33.998Z,77.43
2023-04-17T11:46:34.158Z,77.23
2023-04-17T11:47:34.291Z,76.82
2023-04-17T11:48:34.451Z,76.76
2023-04-17T11:49:34.555Z,77.36
2023-04-17T11:50:34.673Z,74.97
2023-04-17T11:51:34.878Z,75.30
2023-04-17T11:52:34.902Z,74.33
2023-04-17T11:53:35.028Z,75.07
2023-04-17T11:54:35.146Z,74.15
2023-04-17T11:55:35.233Z,74.80
2023-04-17T11:56:35.449Z,74.98
2023-04-17T11:57:35.538Z,75.18
2023-04-17T11:58:35.641Z,74.62
2023-04-17T11:59:35.784Z,74.41
2023-04-17T12:00:35.888Z,74.38
2023-04-17T12:01:36.011Z,72.69
2023-04-17T12:02:36.314Z,73.71
2023-04-17T12:03:36.707Z,74.01
2023-04-17T12:04:36.766Z,72.25
2023-04-17T12:05:36.604Z,71.97
2023-04-17T12:06:36.664Z,74.57
2023-04-17T12:07:36.759Z,72.70
2023-04-17T12:08:38.397Z,73.23
2023-04-17T12:09:37.000Z,70.91
2023-04-17T12:10:37.108Z,71.66
2023-04-17T12:11:37.220Z,72.09
2023-04-17T12:12:37.314Z,71.24
2023-04-17T12:13:37.486Z,71.59
2023-04-17T12:14:37.597Z,71.76
2023-04-17T12:15:37.708Z,72.70
2023-04-17T12:16:38.006Z,72.27
2023-04-17T12:17:38.030Z,71.82
2023-04-17T12:18:38.156Z,69.29
2023-04-17T12:19:38.214Z,69.54
2023-04-17T12:20:38.307Z,68.26
2023-04-17T12:21:38.513Z,68.76
2023-04-17T12:22:38.587Z,69.27
2023-04-17T12:23:38.703Z,70.54
2023-04-17T12:24:38.842Z,69.36
2023-04-17T12:25:38.975Z,66.37
2023-04-17T12:26:39.169Z,66.64
2023-04-17T12:27:39.277Z,65.46
2023-04-17T12:28:39.423Z,65.94
2023-04-17T12:29:44.461Z,68.21
2023-04-17T12:30:40.604Z,67.74
2023-04-17T12:31:39.796Z,67.09
2023-04-17T12:32:39.894Z,67.64
2023-04-17T12:33:39.959Z,66.02
2023-04-17T12:34:40.025Z,65.83
2023-04-17T12:35:40.122Z,65.65
2023-04-17T12:36:40.385Z,68.83
2023-04-17T12:37:40.384Z,68.14
2023-04-17T12:38:40.538Z,65.66
2023-04-17T12:39:40.627Z,65.69
2023-04-17T12:40:40.802Z,65.68
2023-04-17T12:41:40.915Z,64.40
2023-04-17T12:42:48.631Z,65.64
2023-04-17T12:43:42.155Z,65.66
2023-04-17T12:44:41.279Z,65.33
2023-04-17T12:45:42.407Z,64.96
2023-04-17T12:46:41.505Z,65.19
2023-04-17T12:47:41.728Z,65.59
2023-04-17T12:48:41.818Z,66.73
2023-04-17T12:49:41.888Z,62.83
2023-04-17T12:50:42.009Z,63.51
2023-04-17T12:51:42.211Z,62.83
2023-04-17T12:52:42.259Z,62.55
2023-04-17T12:53:42.382Z,63.54